createdAt,value
2019-05-20T00:00:42.729Z,13.97
2019-05-20T00:03:12.490Z,15.17
2019-05-20T00:05:42.581Z,14.63
2019-05-20T00:08:12.496Z,13.67
2019-05-20T00:10:42.294Z,13.47
2019-05-20T00:13:12.004Z,14.07
2019-05-20T00:15:41.739Z,14.60
2019-05-20T00:18:11.538Z,14.17
2019-05-20T00:20:41.294Z,13.03
2019-05-20T00:23:11.051Z,13.63
2019-05-20T00:25:40.808Z,13.90
2019-05-20T00:28:10.504Z,13.97
2019-05-20T00:30:40.217Z,13.87
2019-05-20T00:33:09.934Z,14.43
2019-05-20T00:35:39.703Z,14.23
2019-05-20T00:38:09.423Z,13.47
2019-05-20T00:40:39.110Z,12.67
2019-05-20T00:43:08.838Z,14.10
2019-05-20T00:45:38.556Z,14.50
2019-05-20T00:48:08.282Z,14.43
2019-05-20T00:50:38.079Z,15.07
2019-05-20T00:53:07.926Z,14.63
2019-05-20T00:55:38.911Z,14.07
2019-05-20T00:58:08.776Z,15.27
2019-05-20T01:00:39.050Z,14.97
2019-05-20T01:03:08.883Z,15.43
2019-05-20T01:05:38.595Z,16.13
2019-05-20T01:08:08.334Z,15.73
2019-05-20T01:10:38.034Z,18.10
2019-05-20T01:13:07.834Z,14.07
2019-05-20T01:15:37.543Z,15.40
2019-05-20T01:18:07.276Z,14.77
2019-05-20T01:20:36.960Z,15.53
2019-05-20T01:23:07.074Z,14.40
2019-05-20T01:25:36.880Z,15.03
2019-05-20T01:28:06.667Z,15.53
2019-05-20T01:30:36.447Z,16.63
2019-05-20T01:33:13.901Z,15.40
2019-05-20T01:35:37.659Z,15.13
2019-05-20T01:38:07.378Z,16.10
2019-05-20T01:40:37.228Z,16.97
2019-05-20T01:43:06.931Z,14.37
2019-05-20T01:45:36.643Z,16.50
2019-05-20T01:48:06.410Z,16.10
2019-05-20T01:50:36.120Z,16.67
2019-05-20T01:53:05.891Z,15.47
2019-05-20T01:55:35.667Z,16.73
2019-05-20T01:58:05.461Z,15.67
2019-05-20T02:00:35.255Z,17.17
2019-05-20T02:03:05.055Z,16.70
2019-05-20T02:05:34.748Z,17.40
2019-05-20T02:08:04.451Z,16.50
2019-05-20T02:10:34.161Z,16.13
2019-05-20T02:13:04.038Z,16.63
2019-05-20T02:15:42.312Z,17.53
2019-05-20T02:18:12.183Z,15.67
2019-05-20T02:20:42.057Z,16.60
2019-05-20T02:23:15.373Z,15.53
2019-05-20T02:25:46.963Z,16.63
2019-05-20T02:28:17.918Z,15.53
2019-05-20T02:30:47.697Z,15.67
2019-05-20T02:33:17.605Z,14.80
2019-05-20T02:35:47.329Z,15.03
2019-05-20T02:38:17.033Z,14.57
2019-05-20T02:40:46.715Z,14.60
2019-05-20T02:43:16.507Z,13.13
2019-05-20T02:45:46.360Z,12.63
2019-05-20T02:48:16.128Z,15.07
2019-05-20T02:50:45.987Z,14.13
2019-05-20T02:53:15.860Z,14.60
2019-05-20T02:55:45.641Z,12.57
2019-05-20T02:58:15.336Z,14.73
2019-05-20T03:00:46.285Z,15.17
2019-05-20T03:03:16.180Z,12.67
2019-05-20T03:05:45.891Z,14.13
2019-05-20T03:08:15.573Z,14.67
2019-05-20T03:10:45.532Z,14.53
2019-05-20T03:13:15.231Z,13.90
2019-05-20T03:15:44.989Z,14.37
2019-05-20T03:18:14.700Z,13.20
2019-05-20T03:20:44.450Z,14.07
2019-05-20T03:23:14.624Z,11.70
2019-05-20T03:25:44.516Z,11.83
2019-05-20T03:28:14.212Z,12.87
2019-05-20T03:30:44.523Z,12.87
2019-05-20T03:33:15.380Z,14.70
2019-05-20T03:35:45.302Z,13.57
2019-05-20T03:38:15.156Z,13.17
2019-05-20T03:40:44.996Z,12.50
2019-05-20T03:43:14.775Z,15.10
2019-05-20T03:45:45.134Z,14.40
2019-05-20T03:48:14.813Z,13.20
2019-05-20T03:50:44.670Z,12.90
2019-05-20T03:53:14.714Z,14.27
2019-05-20T03:55:45.017Z,14.47
2019-05-20T03:58:14.895Z,13.60
2019-05-20T04:00:48.091Z,12.30
2019-05-20T04:03:18.017Z,12.27
2019-05-20T04:05:47.710Z,14.53
2019-05-20T04:08:17.704Z,12.67
2019-05-20T04:10:47.526Z,14.33
2019-05-20T04:13:17.407Z,13.50
2019-05-20T04:15:47.118Z,14.87
2019-05-20T04:18:16.938Z,13.67
2019-05-20T04:20:46.710Z,14.03
2019-05-20T04:23:16.685Z,12.83
2019-05-20T04:25:46.471Z,12.57
2019-05-20T04:28:16.334Z,11.67
2019-05-20T04:30:46.297Z,12.03
2019-05-20T04:33:16.144Z,12.47
2019-05-20T04:35:49.685Z,13.90
2019-05-20T04:38:17.472Z,12.90
2019-05-20T04:40:47.271Z,12.33
2019-05-20T04:43:16.978Z,12.77
2019-05-20T04:45:46.857Z,13.00
2019-05-20T04:48:16.540Z,12.83
2019-05-20T04:50:46.454Z,12.67
2019-05-20T04:53:16.324Z,11.77
2019-05-20T04:55:46.174Z,11.57
2019-05-20T04:58:15.882Z,10.47
2019-05-20T05:00:56.529Z,12.37
2019-05-20T05:03:26.385Z,11.63
2019-05-20T05:05:56.273Z,12.33
2019-05-20T05:08:26.206Z,10.23
2019-05-20T05:10:56.091Z,9.80
2019-05-20T05:13:25.950Z,9.67
2019-05-20T05:15:55.793Z,9.57
2019-05-20T05:18:25.647Z,9.23
2019-05-20T05:20:55.706Z,10.30
2019-05-20T05:23:25.566Z,11.43
2019-05-20T05:25:55.504Z,9.17
2019-05-20T05:28:25.297Z,9.73
2019-05-20T05:30:55.175Z,10.43
2019-05-20T05:33:25.027Z,8.83
2019-05-20T05:35:55.060Z,9.33
2019-05-20T05:38:24.898Z,10.63
2019-05-20T05:40:54.699Z,9.03
2019-05-20T05:43:24.589Z,8.63
2019-05-20T05:45:54.299Z,9.47
2019-05-20T05:48:24.064Z,10.03
2019-05-20T05:50:53.779Z,9.83
2019-05-20T05:53:23.547Z,11.43
2019-05-20T05:55:53.325Z,10.93
2019-05-20T05:58:23.020Z,8.67
2019-05-20T06:00:52.721Z,9.17
2019-05-20T06:03:22.547Z,9.53
2019-05-20T06:06:10.290Z,9.87
2019-05-20T06:08:23.732Z,9.60
2019-05-20T06:10:53.415Z,10.47
2019-05-20T06:13:23.254Z,9.43
2019-05-20T06:15:54.727Z,10.83
2019-05-20T06:18:24.504Z,10.03
2019-05-20T06:20:54.272Z,9.53
2019-05-20T06:23:24.041Z,10.47
2019-05-20T06:25:53.881Z,10.00
2019-05-20T06:28:23.796Z,12.03
2019-05-20T06:30:53.583Z,9.63
2019-05-20T06:33:23.409Z,10.53
2019-05-20T06:35:53.191Z,9.93
2019-05-20T06:38:43.668Z,10.80
2019-05-20T06:41:13.598Z,11.13
2019-05-20T06:43:43.369Z,9.67
2019-05-20T06:46:13.145Z,10.47
2019-05-20T06:48:42.835Z,10.93
2019-05-20T06:51:12.624Z,11.57
2019-05-20T06:53:42.411Z,11.50
2019-05-20T06:56:12.111Z,12.80
2019-05-20T06:58:42.898Z,12.03
2019-05-20T07:01:12.614Z,13.53
2019-05-20T07:03:42.324Z,11.13
2019-05-20T07:06:12.111Z,10.40
2019-05-20T07:08:41.909Z,11.03
2019-05-20T07:11:11.761Z,11.70
2019-05-20T07:13:41.454Z,12.27
2019-05-20T07:16:11.181Z,10.63
2019-05-20T07:18:41.010Z,10.63
2019-05-20T07:21:11.111Z,8.77
2019-05-20T07:23:40.863Z,11.33
2019-05-20T07:26:10.653Z,9.63
2019-05-20T07:28:40.376Z,9.10
2019-05-20T07:31:10.191Z,10.17
2019-05-20T07:33:40.027Z,10.00
2019-05-20T07:36:10.228Z,10.13
2019-05-20T07:38:40.117Z,8.27
2019-05-20T07:41:09.915Z,9.70
2019-05-20T07:43:39.752Z,9.77
2019-05-20T07:46:10.998Z,10.30
2019-05-20T07:48:41.226Z,10.53
2019-05-20T07:51:12.529Z,10.47
2019-05-20T07:53:43.091Z,9.33
2019-05-20T07:56:17.696Z,8.77
2019-05-20T07:58:50.554Z,9.53
2019-05-20T08:01:20.534Z,10.07
2019-05-20T08:03:50.307Z,9.87
2019-05-20T08:06:20.160Z,9.27
2019-05-20T08:08:50.839Z,9.20
2019-05-20T08:11:20.584Z,9.83
2019-05-20T08:13:50.346Z,9.30
2019-05-20T08:16:21.265Z,10.37
2019-05-20T08:18:51.138Z,11.13
2019-05-20T08:21:20.974Z,9.03
2019-05-20T08:23:50.695Z,11.97
2019-05-20T08:26:20.535Z,10.00
2019-05-20T08:28:50.307Z,11.63
2019-05-20T08:31:20.079Z,9.50
2019-05-20T08:33:50.815Z,9.97
2019-05-20T08:36:20.522Z,7.93
2019-05-20T08:38:50.235Z,10.77
2019-05-20T08:41:20.071Z,9.03
2019-05-20T08:43:49.811Z,8.77
2019-05-20T08:46:19.658Z,8.87
2019-05-20T08:48:49.492Z,8.47
2019-05-20T08:51:19.314Z,8.40
2019-05-20T08:53:49.179Z,8.30
2019-05-20T08:56:18.952Z,8.50
2019-05-20T08:58:48.715Z,8.70
2019-05-20T09:01:18.470Z,8.57
2019-05-20T09:03:48.307Z,9.30
2019-05-20T09:06:20.789Z,8.10
2019-05-20T09:08:49.506Z,9.10
2019-05-20T09:11:19.299Z,10.60
2019-05-20T09:13:49.066Z,9.00
2019-05-20T09:16:18.891Z,9.80
2019-05-20T09:18:48.656Z,9.63
2019-05-20T09:21:18.378Z,8.53
2019-05-20T09:23:48.097Z,9.77
2019-05-20T09:26:17.803Z,10.80
2019-05-20T09:28:47.574Z,8.80
2019-05-20T09:31:17.450Z,10.00
2019-05-20T09:33:47.317Z,9.83
2019-05-20T09:36:17.022Z,8.53
2019-05-20T09:38:50.042Z,9.83
2019-05-20T09:41:19.923Z,9.33
2019-05-20T09:43:49.707Z,10.97
2019-05-20T09:46:19.474Z,9.47
2019-05-20T09:48:49.178Z,8.17
2019-05-20T09:51:19.141Z,7.87
2019-05-20T09:53:49.042Z,8.10
2019-05-20T09:56:18.819Z,7.90
2019-05-20T09:58:48.521Z,8.23
2019-05-20T10:01:18.266Z,7.60
2019-05-20T10:03:48.069Z,7.37
2019-05-20T10:06:17.863Z,8.10
2019-05-20T10:08:47.615Z,9.07
2019-05-20T10:11:17.312Z,7.90
2019-05-20T10:13:47.178Z,8.77
2019-05-20T10:16:16.881Z,8.10
2019-05-20T10:18:46.564Z,8.13
2019-05-20T10:21:16.270Z,8.83
2019-05-20T10:23:45.960Z,10.60
2019-05-20T10:26:15.811Z,7.83
2019-05-20T10:28:47.468Z,10.30
2019-05-20T10:31:17.086Z,8.83
2019-05-20T10:33:46.848Z,9.13
2019-05-20T10:36:16.544Z,9.10
2019-05-20T10:38:57.606Z,9.17
2019-05-20T10:41:17.703Z,8.77
2019-05-20T10:43:47.385Z,9.20
2019-05-20T10:46:17.143Z,8.60
2019-05-20T10:48:46.861Z,10.10
2019-05-20T10:51:16.716Z,8.27
2019-05-20T10:53:46.559Z,8.27
2019-05-20T10:56:16.363Z,9.10
2019-05-20T10:58:46.216Z,9.00
2019-05-20T11:01:15.928Z,8.87
2019-05-20T11:03:45.683Z,8.67
2019-05-20T11:06:15.396Z,8.83
2019-05-20T11:08:45.108Z,8.77
2019-05-20T11:11:14.937Z,8.57
2019-05-20T11:13:44.743Z,8.20
2019-05-20T11:16:14.503Z,9.17
2019-05-20T11:18:44.207Z,9.10
2019-05-20T11:21:14.002Z,9.37
2019-05-20T11:23:43.709Z,9.93
2019-05-20T11:26:13.586Z,10.57
2019-05-20T11:28:43.379Z,9.80
2019-05-20T11:31:13.134Z,11.10
2019-05-20T11:33:42.933Z,10.03
2019-05-20T11:36:12.928Z,10.03
2019-05-20T11:38:42.623Z,11.60
2019-05-20T11:41:14.776Z,12.83
2019-05-20T11:43:44.618Z,10.70
2019-05-20T11:46:15.368Z,11.37
2019-05-20T11:48:45.111Z,9.23
2019-05-20T11:51:14.823Z,11.83
2019-05-20T11:53:44.659Z,9.53
2019-05-20T11:56:14.428Z,8.97
2019-05-20T11:58:44.110Z,9.63
2019-05-20T12:01:13.787Z,9.17
2019-05-20T12:03:43.486Z,8.77
2019-05-20T12:06:13.384Z,10.30
2019-05-20T12:08:43.145Z,10.50
2019-05-20T12:11:12.963Z,11.73
2019-05-20T12:13:42.683Z,10.70
2019-05-20T12:16:12.507Z,10.53
2019-05-20T12:18:45.076Z,10.83
2019-05-20T12:21:13.636Z,10.03
2019-05-20T12:23:43.314Z,9.70
2019-05-20T12:26:13.097Z,10.63
2019-05-20T12:28:42.787Z,10.33
2019-05-20T12:31:12.671Z,12.10
2019-05-20T12:33:42.514Z,9.83
2019-05-20T12:36:12.333Z,10.97
2019-05-20T12:38:42.023Z,11.40
2019-05-20T12:41:11.906Z,11.50
2019-05-20T12:43:44.694Z,10.97
2019-05-20T12:46:13.157Z,9.30
2019-05-20T12:48:43.876Z,10.17
2019-05-20T12:51:14.665Z,9.90
2019-05-20T12:53:44.727Z,11.57
2019-05-20T12:56:14.460Z,10.90
2019-05-20T12:58:44.343Z,10.90
2019-05-20T13:01:14.125Z,10.93
2019-05-20T13:03:43.828Z,9.87
2019-05-20T13:06:13.674Z,10.53
2019-05-20T13:08:43.389Z,10.43
2019-05-20T13:11:13.251Z,8.40
2019-05-20T13:13:43.023Z,8.47
2019-05-20T13:16:12.818Z,8.90
2019-05-20T13:18:54.884Z,9.17
2019-05-20T13:21:14.080Z,8.97
2019-05-20T13:23:43.884Z,9.07
2019-05-20T13:26:13.661Z,9.40
2019-05-20T13:28:43.367Z,10.00
2019-05-20T13:31:13.081Z,8.73
2019-05-20T13:33:42.971Z,8.63
2019-05-20T13:36:12.720Z,9.07
2019-05-20T13:38:42.667Z,8.77
2019-05-20T13:41:12.502Z,9.17
2019-05-20T13:43:42.204Z,11.20
2019-05-20T13:46:12.241Z,8.93
2019-05-20T13:48:42.190Z,9.80
2019-05-20T13:51:12.121Z,10.27
2019-05-20T13:53:42.941Z,9.93
2019-05-20T13:56:12.733Z,11.13
2019-05-20T13:58:42.431Z,10.60
2019-05-20T14:01:12.326Z,10.07
2019-05-20T14:03:42.155Z,11.13
2019-05-20T14:06:11.963Z,9.73
2019-05-20T14:08:41.691Z,9.03
2019-05-20T14:11:11.642Z,10.17
2019-05-20T14:13:41.334Z,9.47
2019-05-20T14:16:11.099Z,9.53
2019-05-20T14:18:42.039Z,9.60
2019-05-20T14:21:11.867Z,8.97
2019-05-20T14:23:41.660Z,9.97
2019-05-20T14:26:11.441Z,9.27
2019-05-20T14:28:42.429Z,10.37
2019-05-20T14:31:15.016Z,10.70
2019-05-20T14:33:44.804Z,13.50
2019-05-20T14:36:37.283Z,11.67
2019-05-20T14:38:46.080Z,13.00
2019-05-20T14:41:21.594Z,15.37
2019-05-20T14:43:47.932Z,11.93
2019-05-20T14:46:17.695Z,12.07
2019-05-20T14:48:50.732Z,11.13
2019-05-20T14:51:22.940Z,10.93
2019-05-20T14:53:52.614Z,13.77
2019-05-20T14:56:22.331Z,12.77
2019-05-20T14:58:52.095Z,10.90
2019-05-20T15:01:21.891Z,12.73
2019-05-20T15:03:51.590Z,12.27
2019-05-20T15:06:21.452Z,11.40
2019-05-20T15:08:51.446Z,11.93
2019-05-20T15:11:35.639Z,10.83
2019-05-20T15:13:52.583Z,13.27
2019-05-20T15:16:22.423Z,12.57
2019-05-20T15:18:52.480Z,12.03
2019-05-20T15:21:22.191Z,12.43
2019-05-20T15:23:51.950Z,12.60
2019-05-20T15:26:21.642Z,10.80
2019-05-20T15:28:51.351Z,12.30
2019-05-20T15:31:21.058Z,12.33
2019-05-20T15:33:50.829Z,12.20
2019-05-20T15:36:20.652Z,12.33
2019-05-20T15:38:50.343Z,13.27
2019-05-20T15:41:21.111Z,12.13
2019-05-20T15:43:50.870Z,12.63
2019-05-20T15:46:20.883Z,10.73
2019-05-20T15:48:50.583Z,11.33
2019-05-20T15:51:20.303Z,12.47
2019-05-20T15:53:50.074Z,12.77
2019-05-20T15:56:19.819Z,12.70
2019-05-20T15:58:49.614Z,12.50
2019-05-20T16:01:19.554Z,10.73
2019-05-20T16:03:51.493Z,12.93
2019-05-20T16:06:21.044Z,13.83
2019-05-20T16:08:50.755Z,12.53
2019-05-20T16:11:20.471Z,12.03
2019-05-20T16:13:50.167Z,11.63
2019-05-20T16:16:21.044Z,12.27
2019-05-20T16:18:50.755Z,12.80
2019-05-20T16:21:20.612Z,10.57
2019-05-20T16:23:50.463Z,11.23
2019-05-20T16:26:20.236Z,10.70
2019-05-20T16:28:50.151Z,11.47
2019-05-20T16:31:19.838Z,11.07
2019-05-20T16:33:49.575Z,10.57
2019-05-20T16:36:19.441Z,9.27
2019-05-20T16:38:50.110Z,9.50
2019-05-20T16:41:20.435Z,9.27
2019-05-20T16:43:50.240Z,10.90
2019-05-20T16:46:20.019Z,9.53
2019-05-20T16:48:49.783Z,9.47
2019-05-20T16:51:22.164Z,8.40
2019-05-20T16:53:52.135Z,10.43
2019-05-20T16:56:21.919Z,9.60
2019-05-20T16:58:51.633Z,10.13
2019-05-20T17:01:21.407Z,8.63
2019-05-20T17:03:51.198Z,9.30
2019-05-20T17:06:21.031Z,10.13
2019-05-20T17:08:50.761Z,9.63
2019-05-20T17:11:20.537Z,9.83
2019-05-20T17:13:50.326Z,10.10
2019-05-20T17:16:20.121Z,11.17
2019-05-20T17:18:49.975Z,9.60
2019-05-20T17:21:19.889Z,9.10
2019-05-20T17:23:49.626Z,10.27
2019-05-20T17:26:19.431Z,10.47
2019-05-20T17:28:49.183Z,10.13
2019-05-20T17:31:19.054Z,13.27
2019-05-20T17:33:48.911Z,10.47
2019-05-20T17:36:18.740Z,8.43
2019-05-20T17:38:48.525Z,9.80
2019-05-20T17:41:18.365Z,7.77
2019-05-20T17:43:48.148Z,8.97
2019-05-20T17:46:18.128Z,8.13
2019-05-20T17:48:47.975Z,8.70
2019-05-20T17:51:18.007Z,8.33
2019-05-20T17:53:47.710Z,9.23
2019-05-20T17:56:17.544Z,7.40
2019-05-20T17:58:47.324Z,6.93
2019-05-20T18:01:17.043Z,6.87
2019-05-20T18:03:46.769Z,7.77
2019-05-20T18:06:16.580Z,6.80
2019-05-20T18:08:50.238Z,6.80
2019-05-20T18:11:20.110Z,6.73
2019-05-20T18:13:49.799Z,7.93
2019-05-20T18:16:19.773Z,8.13
2019-05-20T18:18:49.871Z,7.63
2019-05-20T18:21:19.882Z,7.87
2019-05-20T18:23:49.671Z,7.97
2019-05-20T18:26:19.446Z,9.80
2019-05-20T18:28:49.210Z,10.60
2019-05-20T18:31:31.717Z,11.37
2019-05-20T18:33:50.679Z,10.33
2019-05-20T18:36:20.447Z,11.00
2019-05-20T18:38:50.318Z,9.63
2019-05-20T18:41:20.223Z,10.83
2019-05-20T18:43:49.935Z,10.40
2019-05-20T18:46:19.731Z,9.20
2019-05-20T18:48:49.437Z,9.53
2019-05-20T18:51:19.317Z,10.17
2019-05-20T18:53:49.005Z,10.47
2019-05-20T18:56:19.777Z,9.50
2019-05-20T18:58:49.544Z,10.67
2019-05-20T19:01:19.813Z,11.10
2019-05-20T19:03:49.693Z,10.17
2019-05-20T19:06:19.560Z,10.70
2019-05-20T19:08:52.340Z,10.90
2019-05-20T19:11:22.212Z,10.63
2019-05-20T19:13:53.029Z,10.80
2019-05-20T19:16:22.801Z,11.20
2019-05-20T19:18:52.580Z,11.07
2019-05-20T19:21:22.369Z,11.77
2019-05-20T19:23:52.184Z,10.93
2019-05-20T19:26:25.012Z,11.30
2019-05-20T19:28:53.371Z,12.80
2019-05-20T19:31:23.156Z,14.30
2019-05-20T19:33:52.859Z,11.37
2019-05-20T19:36:22.644Z,11.80
2019-05-20T19:38:52.695Z,12.50
2019-05-20T19:41:22.419Z,12.27
2019-05-20T19:43:53.103Z,12.50
2019-05-20T19:46:22.816Z,11.60
2019-05-20T19:48:52.511Z,10.57
2019-05-20T19:51:22.293Z,10.97
2019-05-20T19:53:52.175Z,12.17
2019-05-20T19:56:21.894Z,10.97
2019-05-20T19:58:51.595Z,9.73
2019-05-20T20:01:21.367Z,10.63
2019-05-20T20:03:51.155Z,10.60
2019-05-20T20:06:20.935Z,9.63
2019-05-20T20:08:50.710Z,12.10
2019-05-20T20:11:20.577Z,10.77
2019-05-20T20:13:50.348Z,11.63
2019-05-20T20:16:20.132Z,11.07
2019-05-20T20:18:49.819Z,9.03
2019-05-20T20:21:19.551Z,9.30
2019-05-20T20:23:49.284Z,9.70
2019-05-20T20:26:19.041Z,8.40
2019-05-20T20:28:48.738Z,9.43
2019-05-20T20:31:18.502Z,8.90
2019-05-20T20:33:48.395Z,8.17
2019-05-20T20:36:21.218Z,7.33
2019-05-20T20:38:49.580Z,8.10
2019-05-20T20:41:19.421Z,8.97
2019-05-20T20:43:49.181Z,8.53
2019-05-20T20:46:18.986Z,9.40
2019-05-20T20:48:48.774Z,8.93
2019-05-20T20:51:18.508Z,9.80
2019-05-20T20:53:49.184Z,11.47
2019-05-20T20:56:25.322Z,8.33
2019-05-20T20:58:50.766Z,8.83
2019-05-20T21:01:20.579Z,9.10
2019-05-20T21:03:50.435Z,10.27
2019-05-20T21:06:20.235Z,9.37
2019-05-20T21:08:49.954Z,8.73
2019-05-20T21:11:19.839Z,7.93
2019-05-20T21:13:49.548Z,9.07
2019-05-20T21:16:19.403Z,8.93
2019-05-20T21:18:49.095Z,9.63
2019-05-20T21:21:18.844Z,9.53
2019-05-20T21:23:48.563Z,8.33
2019-05-20T21:26:18.255Z,9.53
2019-05-20T21:28:47.942Z,9.53
2019-05-20T21:31:17.728Z,9.40
2019-05-20T21:33:47.419Z,10.33
2019-05-20T21:36:17.183Z,9.73
2019-05-20T21:38:46.881Z,10.43
2019-05-20T21:41:16.646Z,10.47
2019-05-20T21:43:46.369Z,10.13
2019-05-20T21:46:16.076Z,10.53
2019-05-20T21:48:45.942Z,12.47
2019-05-20T21:51:15.651Z,11.47
2019-05-20T21:53:45.365Z,12.10
2019-05-20T21:56:15.154Z,9.90
2019-05-20T21:58:44.827Z,9.03
2019-05-20T22:01:16.437Z,8.57
2019-05-20T22:03:46.190Z,8.27
2019-05-20T22:06:15.967Z,11.10
2019-05-20T22:08:45.654Z,12.53
2019-05-20T22:11:15.496Z,9.97
2019-05-20T22:13:45.273Z,9.97
2019-05-20T22:16:14.974Z,8.87
2019-05-20T22:18:44.802Z,10.13
2019-05-20T22:21:16.150Z,10.17
2019-05-20T22:23:56.919Z,10.00
2019-05-20T22:26:26.652Z,9.93
2019-05-20T22:28:56.337Z,9.90
2019-05-20T22:31:26.290Z,8.57
2019-05-20T22:33:57.201Z,10.47
2019-05-20T22:36:26.918Z,10.63
2019-05-20T22:38:56.690Z,9.77
2019-05-20T22:41:26.507Z,9.57
2019-05-20T22:43:56.205Z,10.50
2019-05-20T22:46:26.007Z,10.57
2019-05-20T22:48:55.851Z,10.57
2019-05-20T22:51:25.631Z,10.07
2019-05-20T22:53:55.365Z,12.60
2019-05-20T22:56:25.134Z,13.63
2019-05-20T22:58:54.806Z,12.53
2019-05-20T23:01:24.559Z,11.37
2019-05-20T23:03:56.337Z,12.20
2019-05-20T23:06:25.693Z,11.50
2019-05-20T23:08:55.382Z,11.37
2019-05-20T23:11:25.078Z,14.57
2019-05-20T23:13:54.792Z,13.47
2019-05-20T23:16:24.488Z,13.30
2019-05-20T23:18:54.203Z,11.70
2019-05-20T23:21:23.914Z,12.20
2019-05-20T23:23:53.618Z,13.53
2019-05-20T23:26:23.333Z,13.33
2019-05-20T23:28:53.183Z,14.13
2019-05-20T23:31:22.908Z,14.23
2019-05-20T23:33:52.699Z,13.90
2019-05-20T23:36:22.403Z,14.53
2019-05-20T23:38:53.096Z,17.83
2019-05-20T23:41:22.778Z,16.50
2019-05-20T23:43:52.567Z,14.10
2019-05-20T23:46:22.274Z,15.70
2019-05-20T23:48:52.079Z,13.87
2019-05-20T23:51:21.821Z,14.17
2019-05-20T23:53:51.735Z,15.50
2019-05-20T23:56:21.512Z,14.53
2019-05-20T23:58:52.246Z,15.37
